sensor_id;sensor_type;location;lat;lon;timestamp;P1;durP1;ratioP1;P2;durP2;ratioP2
13061;SDS011;6597;52.218;9.882;2022-09-17T00:00:16;1.77;;;0.70;;
13061;SDS011;6597;52.218;9.882;2022-09-17T00:02:43;1.47;;;0.80;;
13061;SDS011;6597;52.218;9.882;2022-09-17T00:05:12;1.97;;;0.80;;
13061;SDS011;6597;52.218;9.882;2022-09-17T00:07:38;1.60;;;0.93;;
13061;SDS011;6597;52.218;9.882;2022-09-17T00:10:05;1.60;;;0.90;;
13061;SDS011;6597;52.218;9.882;2022-09-17T00:12:32;1.60;;;0.50;;
13061;SDS011;6597;52.218;9.882;2022-09-17T00:15:00;3.93;;;0.67;;
13061;SDS011;6597;52.218;9.882;2022-09-17T00:17:26;5.03;;;1.20;;
13061;SDS011;6597;52.218;9.882;2022-09-17T00:19:53;1.00;;;0.80;;
13061;SDS011;6597;52.218;9.882;2022-09-17T00:22:19;6.67;;;1.07;;
13061;SDS011;6597;52.218;9.882;2022-09-17T00:24:46;4.60;;;1.13;;
13061;SDS011;6597;52.218;9.882;2022-09-17T00:27:12;3.53;;;1.40;;
13061;SDS011;6597;52.218;9.882;2022-09-17T00:29:39;4.73;;;1.50;;
13061;SDS011;6597;52.218;9.882;2022-09-17T00:32:07;2.10;;;1.03;;
13061;SDS011;6597;52.218;9.882;2022-09-17T00:34:33;5.90;;;1.47;;
13061;SDS011;6597;52.218;9.882;2022-09-17T00:37:00;7.50;;;1.50;;
13061;SDS011;6597;52.218;9.882;2022-09-17T00:39:27;5.13;;;1.40;;
13061;SDS011;6597;52.218;9.882;2022-09-17T00:41:53;10.73;;;1.80;;
13061;SDS011;6597;52.218;9.882;2022-09-17T00:47:26;2.87;;;1.47;;
13061;SDS011;6597;52.218;9.882;2022-09-17T00:49:56;7.20;;;1.60;;
13061;SDS011;6597;52.218;9.882;2022-09-17T00:52:27;4.33;;;1.70;;
13061;SDS011;6597;52.218;9.882;2022-09-17T00:54:58;5.50;;;1.63;;
13061;SDS011;6597;52.218;9.882;2022-09-17T00:57:28;3.43;;;1.53;;
13061;SDS011;6597;52.218;9.882;2022-09-17T00:59:56;4.23;;;1.37;;
13061;SDS011;6597;52.218;9.882;2022-09-17T01:02:23;4.13;;;1.30;;
13061;SDS011;6597;52.218;9.882;2022-09-17T01:04:52;6.20;;;1.50;;
13061;SDS011;6597;52.218;9.882;2022-09-17T01:07:43;5.23;;;1.60;;
13061;SDS011;6597;52.218;9.882;2022-09-17T01:10:22;4.27;;;1.10;;
13061;SDS011;6597;52.218;9.882;2022-09-17T01:13:15;9.20;;;2.00;;
13061;SDS011;6597;52.218;9.882;2022-09-17T01:15:51;8.27;;;1.40;;
13061;SDS011;6597;52.218;9.882;2022-09-17T01:18:28;6.03;;;1.33;;
13061;SDS011;6597;52.218;9.882;2022-09-17T01:21:15;8.87;;;1.30;;
13061;SDS011;6597;52.218;9.882;2022-09-17T01:24:16;8.47;;;1.83;;
13061;SDS011;6597;52.218;9.882;2022-09-17T01:27:15;6.23;;;1.33;;
13061;SDS011;6597;52.218;9.882;2022-09-17T01:30:05;8.63;;;1.53;;
13061;SDS011;6597;52.218;9.882;2022-09-17T01:32:43;4.93;;;1.37;;
13061;SDS011;6597;52.218;9.882;2022-09-17T01:35:13;3.53;;;1.20;;
13061;SDS011;6597;52.218;9.882;2022-09-17T01:37:47;5.47;;;1.33;;
13061;SDS011;6597;52.218;9.882;2022-09-17T01:40:23;4.43;;;1.17;;
13061;SDS011;6597;52.218;9.882;2022-09-17T01:42:56;2.80;;;1.00;;
13061;SDS011;6597;52.218;9.882;2022-09-17T01:45:31;6.03;;;1.27;;
13061;SDS011;6597;52.218;9.882;2022-09-17T01:48:06;8.90;;;1.40;;
13061;SDS011;6597;52.218;9.882;2022-09-17T01:50:36;2.60;;;1.03;;
13061;SDS011;6597;52.218;9.882;2022-09-17T01:53:05;12.73;;;1.87;;
13061;SDS011;6597;52.218;9.882;2022-09-17T01:55:36;7.60;;;1.67;;
13061;SDS011;6597;52.218;9.882;2022-09-17T01:58:06;11.10;;;1.67;;
13061;SDS011;6597;52.218;9.882;2022-09-17T02:00:39;5.70;;;1.63;;
13061;SDS011;6597;52.218;9.882;2022-09-17T02:03:13;11.73;;;1.60;;
13061;SDS011;6597;52.218;9.882;2022-09-17T02:05:47;11.07;;;1.80;;
13061;SDS011;6597;52.218;9.882;2022-09-17T02:08:19;3.97;;;1.50;;
13061;SDS011;6597;52.218;9.882;2022-09-17T02:10:48;7.47;;;1.50;;
13061;SDS011;6597;52.218;9.882;2022-09-17T02:13:22;4.10;;;1.37;;
13061;SDS011;6597;52.218;9.882;2022-09-17T02:15:53;6.23;;;1.70;;
13061;SDS011;6597;52.218;9.882;2022-09-17T02:18:25;4.37;;;1.50;;
13061;SDS011;6597;52.218;9.882;2022-09-17T02:20:58;4.47;;;1.60;;
13061;SDS011;6597;52.218;9.882;2022-09-17T02:23:32;4.43;;;1.30;;
13061;SDS011;6597;52.218;9.882;2022-09-17T02:26:03;10.70;;;1.63;;
13061;SDS011;6597;52.218;9.882;2022-09-17T02:28:35;4.63;;;1.33;;
13061;SDS011;6597;52.218;9.882;2022-09-17T02:31:08;7.57;;;1.53;;
13061;SDS011;6597;52.218;9.882;2022-09-17T02:33:37;7.03;;;2.03;;
13061;SDS011;6597;52.218;9.882;2022-09-17T02:36:06;8.20;;;1.60;;
13061;SDS011;6597;52.218;9.882;2022-09-17T02:38:33;8.47;;;1.80;;
13061;SDS011;6597;52.218;9.882;2022-09-17T02:41:01;10.53;;;2.13;;
13061;SDS011;6597;52.218;9.882;2022-09-17T02:43:38;12.93;;;2.23;;
13061;SDS011;6597;52.218;9.882;2022-09-17T02:46:16;13.13;;;2.00;;
13061;SDS011;6597;52.218;9.882;2022-09-17T02:49:10;8.00;;;1.53;;
13061;SDS011;6597;52.218;9.882;2022-09-17T02:51:51;7.77;;;2.07;;
13061;SDS011;6597;52.218;9.882;2022-09-17T02:54:23;11.30;;;2.07;;
13061;SDS011;6597;52.218;9.882;2022-09-17T02:56:56;7.97;;;1.80;;
13061;SDS011;6597;52.218;9.882;2022-09-17T02:59:34;9.90;;;1.70;;
13061;SDS011;6597;52.218;9.882;2022-09-17T03:02:07;4.70;;;1.47;;
13061;SDS011;6597;52.218;9.882;2022-09-17T03:04:43;9.53;;;1.70;;
13061;SDS011;6597;52.218;9.882;2022-09-17T03:07:13;8.73;;;1.67;;
13061;SDS011;6597;52.218;9.882;2022-09-17T03:09:41;15.57;;;1.90;;
13061;SDS011;6597;52.218;9.882;2022-09-17T03:12:08;4.37;;;1.70;;
13061;SDS011;6597;52.218;9.882;2022-09-17T03:14:36;10.57;;;1.90;;
13061;SDS011;6597;52.218;9.882;2022-09-17T03:17:03;16.10;;;2.33;;
13061;SDS011;6597;52.218;9.882;2022-09-17T03:19:29;11.47;;;1.87;;
13061;SDS011;6597;52.218;9.882;2022-09-17T03:21:58;6.00;;;1.50;;
13061;SDS011;6597;52.218;9.882;2022-09-17T03:24:24;8.50;;;1.77;;
13061;SDS011;6597;52.218;9.882;2022-09-17T03:26:51;6.70;;;1.47;;
13061;SDS011;6597;52.218;9.882;2022-09-17T03:29:17;7.07;;;1.37;;
13061;SDS011;6597;52.218;9.882;2022-09-17T03:31:44;11.00;;;2.17;;
13061;SDS011;6597;52.218;9.882;2022-09-17T03:34:11;11.60;;;2.23;;
13061;SDS011;6597;52.218;9.882;2022-09-17T03:36:37;9.43;;;1.73;;
13061;SDS011;6597;52.218;9.882;2022-09-17T03:39:05;8.73;;;1.93;;
13061;SDS011;6597;52.218;9.882;2022-09-17T03:41:32;8.03;;;1.67;;
13061;SDS011;6597;52.218;9.882;2022-09-17T03:43:58;5.90;;;1.90;;
13061;SDS011;6597;52.218;9.882;2022-09-17T03:46:25;4.23;;;1.63;;
13061;SDS011;6597;52.218;9.882;2022-09-17T03:48:51;8.87;;;1.57;;
13061;SDS011;6597;52.218;9.882;2022-09-17T03:51:18;7.17;;;1.60;;
13061;SDS011;6597;52.218;9.882;2022-09-17T03:53:44;4.87;;;1.87;;
13061;SDS011;6597;52.218;9.882;2022-09-17T03:56:12;5.27;;;1.80;;
13061;SDS011;6597;52.218;9.882;2022-09-17T03:58:39;12.53;;;1.60;;
13061;SDS011;6597;52.218;9.882;2022-09-17T04:01:05;7.47;;;1.70;;
13061;SDS011;6597;52.218;9.882;2022-09-17T04:03:32;14.27;;;2.50;;
13061;SDS011;6597;52.218;9.882;2022-09-17T04:05:58;4.70;;;1.20;;
13061;SDS011;6597;52.218;9.882;2022-09-17T04:08:25;6.57;;;1.50;;
13061;SDS011;6597;52.218;9.882;2022-09-17T04:10:52;9.13;;;1.90;;
13061;SDS011;6597;52.218;9.882;2022-09-17T04:13:20;10.47;;;1.70;;
13061;SDS011;6597;52.218;9.882;2022-09-17T04:15:46;9.80;;;1.80;;
13061;SDS011;6597;52.218;9.882;2022-09-17T04:18:14;6.03;;;1.93;;
13061;SDS011;6597;52.218;9.882;2022-09-17T04:20:40;6.53;;;1.47;;
13061;SDS011;6597;52.218;9.882;2022-09-17T04:23:08;8.37;;;2.20;;
13061;SDS011;6597;52.218;9.882;2022-09-17T04:25:36;8.93;;;1.70;;
13061;SDS011;6597;52.218;9.882;2022-09-17T04:28:02;6.20;;;1.87;;
13061;SDS011;6597;52.218;9.882;2022-09-17T04:30:30;7.60;;;1.70;;
13061;SDS011;6597;52.218;9.882;2022-09-17T04:32:57;8.73;;;2.20;;
13061;SDS011;6597;52.218;9.882;2022-09-17T04:35:23;15.47;;;2.63;;
13061;SDS011;6597;52.218;9.882;2022-09-17T04:37:53;10.63;;;2.17;;
13061;SDS011;6597;52.218;9.882;2022-09-17T04:40:20;6.40;;;1.60;;
13061;SDS011;6597;52.218;9.882;2022-09-17T04:42:47;9.33;;;1.70;;
13061;SDS011;6597;52.218;9.882;2022-09-17T04:45:17;6.10;;;1.87;;
13061;SDS011;6597;52.218;9.882;2022-09-17T04:47:44;5.70;;;1.63;;
13061;SDS011;6597;52.218;9.882;2022-09-17T04:50:11;7.83;;;2.20;;
13061;SDS011;6597;52.218;9.882;2022-09-17T04:52:40;9.53;;;2.10;;
13061;SDS011;6597;52.218;9.882;2022-09-17T04:55:07;7.33;;;2.00;;
13061;SDS011;6597;52.218;9.882;2022-09-17T04:57:34;11.67;;;2.20;;
13061;SDS011;6597;52.218;9.882;2022-09-17T05:00:01;10.80;;;1.67;;
13061;SDS011;6597;52.218;9.882;2022-09-17T05:02:27;14.67;;;2.37;;
13061;SDS011;6597;52.218;9.882;2022-09-17T05:04:55;11.63;;;1.60;;
13061;SDS011;6597;52.218;9.882;2022-09-17T05:07:22;12.87;;;1.87;;
13061;SDS011;6597;52.218;9.882;2022-09-17T05:09:49;11.43;;;2.00;;
13061;SDS011;6597;52.218;9.882;2022-09-17T05:12:15;10.90;;;1.53;;
13061;SDS011;6597;52.218;9.882;2022-09-17T05:14:42;13.73;;;2.00;;
13061;SDS011;6597;52.218;9.882;2022-09-17T05:17:08;10.00;;;2.60;;
13061;SDS011;6597;52.218;9.882;2022-09-17T05:19:35;13.53;;;1.80;;
13061;SDS011;6597;52.218;9.882;2022-09-17T05:22:03;11.60;;;2.03;;
13061;SDS011;6597;52.218;9.882;2022-09-17T05:24:29;8.37;;;1.70;;
13061;SDS011;6597;52.218;9.882;2022-09-17T05:26:56;11.47;;;1.83;;
13061;SDS011;6597;52.218;9.882;2022-09-17T05:29:23;7.43;;;1.60;;
13061;SDS011;6597;52.218;9.882;2022-09-17T05:31:49;7.17;;;1.77;;
13061;SDS011;6597;52.218;9.882;2022-09-17T05:34:16;9.70;;;1.53;;
13061;SDS011;6597;52.218;9.882;2022-09-17T05:36:42;3.57;;;1.53;;
13061;SDS011;6597;52.218;9.882;2022-09-17T05:39:10;7.53;;;1.70;;
13061;SDS011;6597;52.218;9.882;2022-09-17T05:41:37;7.53;;;1.30;;
13061;SDS011;6597;52.218;9.882;2022-09-17T05:44:03;11.90;;;2.33;;
13061;SDS011;6597;52.218;9.882;2022-09-17T05:46:30;6.13;;;1.83;;
13061;SDS011;6597;52.218;9.882;2022-09-17T05:48:56;5.43;;;1.77;;
13061;SDS011;6597;52.218;9.882;2022-09-17T05:51:23;11.40;;;2.10;;
13061;SDS011;6597;52.218;9.882;2022-09-17T05:53:50;12.77;;;1.97;;
13061;SDS011;6597;52.218;9.882;2022-09-17T05:56:20;11.00;;;1.90;;
13061;SDS011;6597;52.218;9.882;2022-09-17T05:58:48;12.67;;;1.73;;
13061;SDS011;6597;52.218;9.882;2022-09-17T06:01:14;6.90;;;1.57;;
13061;SDS011;6597;52.218;9.882;2022-09-17T06:03:41;9.00;;;2.03;;
13061;SDS011;6597;52.218;9.882;2022-09-17T06:06:07;7.13;;;1.63;;
13061;SDS011;6597;52.218;9.882;2022-09-17T06:08:35;10.73;;;1.27;;
13061;SDS011;6597;52.218;9.882;2022-09-17T06:11:02;4.83;;;1.37;;
13061;SDS011;6597;52.218;9.882;2022-09-17T06:13:31;14.10;;;1.77;;
13061;SDS011;6597;52.218;9.882;2022-09-17T06:15:59;7.23;;;1.77;;
13061;SDS011;6597;52.218;9.882;2022-09-17T06:18:27;7.77;;;1.60;;
13061;SDS011;6597;52.218;9.882;2022-09-17T06:20:54;10.90;;;1.80;;
13061;SDS011;6597;52.218;9.882;2022-09-17T06:23:22;7.10;;;1.40;;
13061;SDS011;6597;52.218;9.882;2022-09-17T06:25:50;12.10;;;1.50;;
13061;SDS011;6597;52.218;9.882;2022-09-17T06:28:18;15.93;;;1.97;;
13061;SDS011;6597;52.218;9.882;2022-09-17T06:30:46;5.57;;;1.50;;
13061;SDS011;6597;52.218;9.882;2022-09-17T06:33:13;7.37;;;1.80;;
13061;SDS011;6597;52.218;9.882;2022-09-17T06:35:40;12.73;;;2.03;;
13061;SDS011;6597;52.218;9.882;2022-09-17T06:38:07;6.40;;;1.53;;
13061;SDS011;6597;52.218;9.882;2022-09-17T06:40:34;13.73;;;2.10;;
13061;SDS011;6597;52.218;9.882;2022-09-17T06:43:00;8.10;;;1.90;;
13061;SDS011;6597;52.218;9.882;2022-09-17T06:45:27;7.80;;;1.73;;
13061;SDS011;6597;52.218;9.882;2022-09-17T06:47:55;9.47;;;1.87;;
13061;SDS011;6597;52.218;9.882;2022-09-17T06:50:22;5.90;;;1.40;;
13061;SDS011;6597;52.218;9.882;2022-09-17T06:52:49;11.83;;;1.60;;
13061;SDS011;6597;52.218;9.882;2022-09-17T06:55:17;9.13;;;1.60;;
13061;SDS011;6597;52.218;9.882;2022-09-17T06:57:43;8.40;;;1.70;;
13061;SDS011;6597;52.218;9.882;2022-09-17T07:00:11;14.43;;;2.00;;
13061;SDS011;6597;52.218;9.882;2022-09-17T07:02:38;9.37;;;1.40;;
13061;SDS011;6597;52.218;9.882;2022-09-17T07:05:07;4.90;;;1.43;;
13061;SDS011;6597;52.218;9.882;2022-09-17T07:07:34;5.67;;;1.00;;
13061;SDS011;6597;52.218;9.882;2022-09-17T07:10:00;2.93;;;1.20;;
13061;SDS011;6597;52.218;9.882;2022-09-17T07:12:27;10.23;;;1.70;;
13061;SDS011;6597;52.218;9.882;2022-09-17T07:14:54;6.73;;;1.57;;
13061;SDS011;6597;52.218;9.882;2022-09-17T07:17:20;7.63;;;1.37;;
13061;SDS011;6597;52.218;9.882;2022-09-17T07:19:47;8.47;;;1.50;;
13061;SDS011;6597;52.218;9.882;2022-09-17T07:22:16;6.40;;;1.83;;
13061;SDS011;6597;52.218;9.882;2022-09-17T07:24:43;6.17;;;1.53;;
13061;SDS011;6597;52.218;9.882;2022-09-17T07:27:11;15.70;;;2.50;;
13061;SDS011;6597;52.218;9.882;2022-09-17T07:29:38;3.83;;;1.40;;
13061;SDS011;6597;52.218;9.882;2022-09-17T07:32:05;8.43;;;1.63;;
13061;SDS011;6597;52.218;9.882;2022-09-17T07:34:32;4.97;;;1.50;;
13061;SDS011;6597;52.218;9.882;2022-09-17T07:36:58;12.97;;;2.07;;
13061;SDS011;6597;52.218;9.882;2022-09-17T07:39:26;8.93;;;1.60;;
13061;SDS011;6597;52.218;9.882;2022-09-17T07:41:53;6.33;;;1.43;;
13061;SDS011;6597;52.218;9.882;2022-09-17T07:44:19;10.47;;;2.00;;
13061;SDS011;6597;52.218;9.882;2022-09-17T07:46:46;4.57;;;1.90;;
13061;SDS011;6597;52.218;9.882;2022-09-17T07:49:13;8.40;;;1.63;;
13061;SDS011;6597;52.218;9.882;2022-09-17T07:51:39;6.00;;;1.47;;
13061;SDS011;6597;52.218;9.882;2022-09-17T07:54:06;15.10;;;2.17;;
13061;SDS011;6597;52.218;9.882;2022-09-17T07:56:34;7.73;;;1.73;;
13061;SDS011;6597;52.218;9.882;2022-09-17T07:59:01;6.77;;;1.40;;
13061;SDS011;6597;52.218;9.882;2022-09-17T08:01:28;7.47;;;1.80;;
13061;SDS011;6597;52.218;9.882;2022-09-17T08:03:58;10.07;;;1.67;;
13061;SDS011;6597;52.218;9.882;2022-09-17T08:06:25;6.77;;;1.87;;
13061;SDS011;6597;52.218;9.882;2022-09-17T08:08:53;6.40;;;1.53;;
13061;SDS011;6597;52.218;9.882;2022-09-17T08:11:21;9.17;;;1.80;;
13061;SDS011;6597;52.218;9.882;2022-09-17T08:13:51;7.13;;;1.53;;
13061;SDS011;6597;52.218;9.882;2022-09-17T08:16:19;13.30;;;2.17;;
13061;SDS011;6597;52.218;9.882;2022-09-17T08:18:47;6.47;;;1.53;;
13061;SDS011;6597;52.218;9.882;2022-09-17T08:21:15;5.93;;;1.13;;
13061;SDS011;6597;52.218;9.882;2022-09-17T08:23:43;5.80;;;1.40;;
13061;SDS011;6597;52.218;9.882;2022-09-17T08:26:10;7.57;;;1.37;;
13061;SDS011;6597;52.218;9.882;2022-09-17T08:28:38;3.73;;;1.30;;
13061;SDS011;6597;52.218;9.882;2022-09-17T08:31:07;5.03;;;1.67;;
13061;SDS011;6597;52.218;9.882;2022-09-17T08:33:35;7.77;;;1.50;;
13061;SDS011;6597;52.218;9.882;2022-09-17T08:36:03;8.17;;;1.63;;
13061;SDS011;6597;52.218;9.882;2022-09-17T08:38:31;12.07;;;1.70;;
13061;SDS011;6597;52.218;9.882;2022-09-17T08:41:02;7.10;;;1.80;;
13061;SDS011;6597;52.218;9.882;2022-09-17T08:43:41;6.87;;;1.50;;
13061;SDS011;6597;52.218;9.882;2022-09-17T08:46:16;4.60;;;1.60;;
13061;SDS011;6597;52.218;9.882;2022-09-17T08:48:44;10.40;;;1.50;;
13061;SDS011;6597;52.218;9.882;2022-09-17T08:51:26;8.07;;;1.33;;
13061;SDS011;6597;52.218;9.882;2022-09-17T08:54:02;9.87;;;1.80;;
13061;SDS011;6597;52.218;9.882;2022-09-17T08:56:33;3.43;;;1.00;;
13061;SDS011;6597;52.218;9.882;2022-09-17T08:59:04;2.73;;;1.20;;
13061;SDS011;6597;52.218;9.882;2022-09-17T09:01:45;4.00;;;1.10;;
13061;SDS011;6597;52.218;9.882;2022-09-17T09:04:33;4.63;;;1.40;;
13061;SDS011;6597;52.218;9.882;2022-09-17T09:07:11;8.13;;;1.60;;
13061;SDS011;6597;52.218;9.882;2022-09-17T09:09:43;9.20;;;1.60;;
13061;SDS011;6597;52.218;9.882;2022-09-17T09:12:15;5.73;;;1.50;;
13061;SDS011;6597;52.218;9.882;2022-09-17T09:21:19;7.70;;;1.47;;
13061;SDS011;6597;52.218;9.882;2022-09-17T09:23:52;5.53;;;1.30;;
13061;SDS011;6597;52.218;9.882;2022-09-17T09:26:23;8.83;;;1.40;;
13061;SDS011;6597;52.218;9.882;2022-09-17T09:29:09;4.47;;;1.40;;
13061;SDS011;6597;52.218;9.882;2022-09-17T09:31:48;7.60;;;1.23;;
13061;SDS011;6597;52.218;9.882;2022-09-17T09:34:24;7.60;;;1.27;;
13061;SDS011;6597;52.218;9.882;2022-09-17T09:36:54;8.03;;;1.37;;
13061;SDS011;6597;52.218;9.882;2022-09-17T09:39:30;4.13;;;1.57;;
13061;SDS011;6597;52.218;9.882;2022-09-17T09:42:00;6.97;;;1.53;;
13061;SDS011;6597;52.218;9.882;2022-09-17T09:44:35;8.33;;;1.50;;
13061;SDS011;6597;52.218;9.882;2022-09-17T09:47:09;5.40;;;1.20;;
13061;SDS011;6597;52.218;9.882;2022-09-17T09:49:51;7.10;;;1.10;;
13061;SDS011;6597;52.218;9.882;2022-09-17T09:52:31;4.80;;;1.53;;
13061;SDS011;6597;52.218;9.882;2022-09-17T09:55:21;7.80;;;1.70;;
13061;SDS011;6597;52.218;9.882;2022-09-17T09:58:02;4.20;;;1.47;;
13061;SDS011;6597;52.218;9.882;2022-09-17T10:00:37;7.20;;;1.43;;
13061;SDS011;6597;52.218;9.882;2022-09-17T10:03:09;4.57;;;1.20;;
13061;SDS011;6597;52.218;9.882;2022-09-17T10:05:44;13.17;;;1.70;;
13061;SDS011;6597;52.218;9.882;2022-09-17T10:08:19;5.40;;;1.47;;
13061;SDS011;6597;52.218;9.882;2022-09-17T10:10:53;1.87;;;1.10;;
13061;SDS011;6597;52.218;9.882;2022-09-17T10:13:25;4.17;;;1.27;;
13061;SDS011;6597;52.218;9.882;2022-09-17T10:15:52;3.87;;;1.30;;
13061;SDS011;6597;52.218;9.882;2022-09-17T10:18:20;7.05;;;1.40;;
13061;SDS011;6597;52.218;9.882;2022-09-17T10:20:52;4.53;;;0.98;;
13061;SDS011;6597;52.218;9.882;2022-09-17T10:23:25;1.67;;;0.85;;
13061;SDS011;6597;52.218;9.882;2022-09-17T10:25:54;4.50;;;1.23;;
13061;SDS011;6597;52.218;9.882;2022-09-17T10:28:23;8.10;;;1.25;;
13061;SDS011;6597;52.218;9.882;2022-09-17T10:31:09;7.97;;;1.20;;
13061;SDS011;6597;52.218;9.882;2022-09-17T10:33:50;2.78;;;1.10;;
13061;SDS011;6597;52.218;9.882;2022-09-17T10:36:34;3.95;;;1.10;;
13061;SDS011;6597;52.218;9.882;2022-09-17T10:39:19;2.65;;;1.10;;
13061;SDS011;6597;52.218;9.882;2022-09-17T10:41:55;11.50;;;1.55;;
13061;SDS011;6597;52.218;9.882;2022-09-17T10:44:24;5.18;;;1.38;;
13061;SDS011;6597;52.218;9.882;2022-09-17T10:46:52;5.32;;;1.48;;
13061;SDS011;6597;52.218;9.882;2022-09-17T10:49:23;3.63;;;1.20;;
13061;SDS011;6597;52.218;9.882;2022-09-17T10:57:52;4.47;;;1.55;;
13061;SDS011;6597;52.218;9.882;2022-09-17T11:00:29;2.45;;;1.20;;
13061;SDS011;6597;52.218;9.882;2022-09-17T11:06:15;4.00;;;0.90;;
13061;SDS011;6597;52.218;9.882;2022-09-17T11:09:10;2.70;;;0.80;;
13061;SDS011;6597;52.218;9.882;2022-09-17T11:11:53;3.03;;;0.95;;
13061;SDS011;6597;52.218;9.882;2022-09-17T11:14:32;7.63;;;1.13;;
13061;SDS011;6597;52.218;9.882;2022-09-17T11:17:11;4.10;;;0.90;;
13061;SDS011;6597;52.218;9.882;2022-09-17T11:19:50;2.47;;;1.15;;
13061;SDS011;6597;52.218;9.882;2022-09-17T11:22:26;5.22;;;1.20;;
13061;SDS011;6597;52.218;9.882;2022-09-17T11:25:07;1.92;;;1.02;;
13061;SDS011;6597;52.218;9.882;2022-09-17T11:27:51;9.77;;;1.15;;
13061;SDS011;6597;52.218;9.882;2022-09-17T11:30:28;5.05;;;1.45;;
13061;SDS011;6597;52.218;9.882;2022-09-17T11:33:19;6.75;;;1.27;;
13061;SDS011;6597;52.218;9.882;2022-09-17T11:35:58;8.75;;;1.25;;
13061;SDS011;6597;52.218;9.882;2022-09-17T11:38:28;8.05;;;1.52;;
13061;SDS011;6597;52.218;9.882;2022-09-17T11:41:03;3.08;;;1.02;;
13061;SDS011;6597;52.218;9.882;2022-09-17T11:43:34;1.77;;;0.73;;
13061;SDS011;6597;52.218;9.882;2022-09-17T11:46:06;2.83;;;1.02;;
13061;SDS011;6597;52.218;9.882;2022-09-17T11:48:36;6.45;;;0.95;;
13061;SDS011;6597;52.218;9.882;2022-09-17T11:51:17;2.42;;;1.02;;
13061;SDS011;6597;52.218;9.882;2022-09-17T11:53:49;4.87;;;1.43;;
13061;SDS011;6597;52.218;9.882;2022-09-17T11:56:19;5.17;;;1.07;;
13061;SDS011;6597;52.218;9.882;2022-09-17T11:58:52;2.80;;;1.17;;
13061;SDS011;6597;52.218;9.882;2022-09-17T12:01:25;2.50;;;1.07;;
13061;SDS011;6597;52.218;9.882;2022-09-17T12:03:57;4.43;;;1.30;;
13061;SDS011;6597;52.218;9.882;2022-09-17T12:06:30;2.87;;;0.77;;
13061;SDS011;6597;52.218;9.882;2022-09-17T12:09:02;2.40;;;1.00;;
13061;SDS011;6597;52.218;9.882;2022-09-17T12:11:37;2.47;;;1.00;;
13061;SDS011;6597;52.218;9.882;2022-09-17T12:14:11;4.70;;;0.73;;
13061;SDS011;6597;52.218;9.882;2022-09-17T12:16:43;1.87;;;1.03;;
13061;SDS011;6597;52.218;9.882;2022-09-17T12:19:16;2.87;;;0.83;;
13061;SDS011;6597;52.218;9.882;2022-09-17T12:21:50;6.03;;;0.90;;
13061;SDS011;6597;52.218;9.882;2022-09-17T12:24:20;5.30;;;1.20;;
13061;SDS011;6597;52.218;9.882;2022-09-17T12:27:00;2.13;;;0.97;;
13061;SDS011;6597;52.218;9.882;2022-09-17T12:29:38;3.20;;;0.90;;
13061;SDS011;6597;52.218;9.882;2022-09-17T12:32:29;6.10;;;1.03;;
13061;SDS011;6597;52.218;9.882;2022-09-17T12:35:05;4.33;;;1.03;;
13061;SDS011;6597;52.218;9.882;2022-09-17T12:37:41;3.80;;;1.10;;
13061;SDS011;6597;52.218;9.882;2022-09-17T12:40:17;1.50;;;0.90;;
13061;SDS011;6597;52.218;9.882;2022-09-17T12:42:55;2.13;;;0.90;;
13061;SDS011;6597;52.218;9.882;2022-09-17T12:45:41;4.87;;;1.07;;
13061;SDS011;6597;52.218;9.882;2022-09-17T12:48:24;4.93;;;1.03;;
13061;SDS011;6597;52.218;9.882;2022-09-17T12:51:05;6.60;;;1.20;;
13061;SDS011;6597;52.218;9.882;2022-09-17T12:53:42;4.93;;;1.20;;
13061;SDS011;6597;52.218;9.882;2022-09-17T12:56:26;2.50;;;0.90;;
13061;SDS011;6597;52.218;9.882;2022-09-17T12:59:04;4.33;;;1.10;;
13061;SDS011;6597;52.218;9.882;2022-09-17T13:01:37;5.40;;;0.93;;
13061;SDS011;6597;52.218;9.882;2022-09-17T13:04:15;0.73;;;0.53;;
13061;SDS011;6597;52.218;9.882;2022-09-17T13:06:57;4.03;;;0.50;;
13061;SDS011;6597;52.218;9.882;2022-09-17T13:10:00;3.03;;;0.57;;
13061;SDS011;6597;52.218;9.882;2022-09-17T13:12:36;5.23;;;0.50;;
13061;SDS011;6597;52.218;9.882;2022-09-17T13:18:11;1.03;;;0.53;;
13061;SDS011;6597;52.218;9.882;2022-09-17T13:20:45;7.17;;;1.23;;
13061;SDS011;6597;52.218;9.882;2022-09-17T13:23:28;5.03;;;1.10;;
13061;SDS011;6597;52.218;9.882;2022-09-17T13:25:58;1.50;;;0.80;;
13061;SDS011;6597;52.218;9.882;2022-09-17T13:28:35;3.03;;;0.47;;
13061;SDS011;6597;52.218;9.882;2022-09-17T13:31:05;6.63;;;0.87;;
13061;SDS011;6597;52.218;9.882;2022-09-17T13:33:56;4.17;;;0.57;;
13061;SDS011;6597;52.218;9.882;2022-09-17T13:36:37;1.23;;;0.67;;
13061;SDS011;6597;52.218;9.882;2022-09-17T13:39:08;3.50;;;0.73;;
13061;SDS011;6597;52.218;9.882;2022-09-17T13:41:37;2.73;;;0.70;;
13061;SDS011;6597;52.218;9.882;2022-09-17T13:44:06;3.53;;;0.70;;
13061;SDS011;6597;52.218;9.882;2022-09-17T13:46:34;1.33;;;0.70;;
13061;SDS011;6597;52.218;9.882;2022-09-17T13:49:04;2.80;;;0.80;;
13061;SDS011;6597;52.218;9.882;2022-09-17T13:54:23;1.43;;;0.60;;
13061;SDS011;6597;52.218;9.882;2022-09-17T13:57:12;7.87;;;1.20;;
13061;SDS011;6597;52.218;9.882;2022-09-17T13:59:50;6.77;;;0.90;;
13061;SDS011;6597;52.218;9.882;2022-09-17T14:02:26;3.20;;;1.00;;
13061;SDS011;6597;52.218;9.882;2022-09-17T14:05:21;1.73;;;0.80;;
13061;SDS011;6597;52.218;9.882;2022-09-17T14:08:06;3.23;;;1.23;;
13061;SDS011;6597;52.218;9.882;2022-09-17T14:10:40;3.23;;;0.90;;
13061;SDS011;6597;52.218;9.882;2022-09-17T14:13:26;2.50;;;0.77;;
13061;SDS011;6597;52.218;9.882;2022-09-17T14:16:20;6.70;;;1.20;;
13061;SDS011;6597;52.218;9.882;2022-09-17T14:19:16;2.90;;;0.60;;
13061;SDS011;6597;52.218;9.882;2022-09-17T14:21:56;2.50;;;0.63;;
13061;SDS011;6597;52.218;9.882;2022-09-17T14:24:25;7.57;;;0.67;;
13061;SDS011;6597;52.218;9.882;2022-09-17T14:27:00;3.90;;;0.83;;
13061;SDS011;6597;52.218;9.882;2022-09-17T14:29:39;1.23;;;0.57;;
13061;SDS011;6597;52.218;9.882;2022-09-17T14:32:17;2.73;;;0.47;;
13061;SDS011;6597;52.218;9.882;2022-09-17T14:34:56;5.10;;;0.73;;
13061;SDS011;6597;52.218;9.882;2022-09-17T14:37:25;0.97;;;0.47;;
13061;SDS011;6597;52.218;9.882;2022-09-17T14:39:53;2.43;;;0.70;;
13061;SDS011;6597;52.218;9.882;2022-09-17T14:42:20;0.93;;;0.60;;
13061;SDS011;6597;52.218;9.882;2022-09-17T14:44:53;1.97;;;0.60;;
13061;SDS011;6597;52.218;9.882;2022-09-17T14:47:23;2.03;;;0.80;;
13061;SDS011;6597;52.218;9.882;2022-09-17T14:49:51;1.50;;;0.50;;
13061;SDS011;6597;52.218;9.882;2022-09-17T14:52:22;4.77;;;0.90;;
13061;SDS011;6597;52.218;9.882;2022-09-17T14:57:43;7.73;;;1.43;;
13061;SDS011;6597;52.218;9.882;2022-09-17T15:00:15;3.00;;;1.37;;
13061;SDS011;6597;52.218;9.882;2022-09-17T15:02:48;4.27;;;0.83;;
13061;SDS011;6597;52.218;9.882;2022-09-17T15:05:17;5.07;;;1.13;;
13061;SDS011;6597;52.218;9.882;2022-09-17T15:08:03;3.50;;;0.77;;
13061;SDS011;6597;52.218;9.882;2022-09-17T15:10:38;1.90;;;0.77;;
13061;SDS011;6597;52.218;9.882;2022-09-17T15:13:13;2.73;;;1.00;;
13061;SDS011;6597;52.218;9.882;2022-09-17T15:15:49;2.20;;;0.90;;
13061;SDS011;6597;52.218;9.882;2022-09-17T15:18:18;5.20;;;0.80;;
13061;SDS011;6597;52.218;9.882;2022-09-17T15:20:46;6.00;;;0.90;;
13061;SDS011;6597;52.218;9.882;2022-09-17T15:23:15;7.00;;;1.17;;
13061;SDS011;6597;52.218;9.882;2022-09-17T15:25:47;3.13;;;0.73;;
13061;SDS011;6597;52.218;9.882;2022-09-17T15:28:19;9.83;;;1.50;;
13061;SDS011;6597;52.218;9.882;2022-09-17T15:30:53;2.87;;;0.90;;
13061;SDS011;6597;52.218;9.882;2022-09-17T15:33:20;3.70;;;1.10;;
13061;SDS011;6597;52.218;9.882;2022-09-17T15:36:02;6.07;;;1.17;;
13061;SDS011;6597;52.218;9.882;2022-09-17T15:38:39;7.13;;;1.27;;
13061;SDS011;6597;52.218;9.882;2022-09-17T15:41:22;4.03;;;0.60;;
13061;SDS011;6597;52.218;9.882;2022-09-17T15:44:04;4.63;;;0.77;;
13061;SDS011;6597;52.218;9.882;2022-09-17T15:46:32;6.60;;;0.90;;
13061;SDS011;6597;52.218;9.882;2022-09-17T15:48:59;9.07;;;1.13;;
13061;SDS011;6597;52.218;9.882;2022-09-17T15:51:27;1.40;;;0.73;;
13061;SDS011;6597;52.218;9.882;2022-09-17T15:53:56;3.37;;;0.63;;
13061;SDS011;6597;52.218;9.882;2022-09-17T15:56:24;6.57;;;0.90;;